createdAt,value
2022-08-04T00:00:07.765Z,4.20
2022-08-04T00:02:52.774Z,4.97
2022-08-04T00:05:30.643Z,4.97
2022-08-04T00:08:12.216Z,5.00
2022-08-04T00:10:41.522Z,4.23
2022-08-04T00:13:10.561Z,4.70
2022-08-04T00:15:39.321Z,5.70
2022-08-04T00:18:11.641Z,5.07
2022-08-04T00:20:42.354Z,4.20
2022-08-04T00:23:10.868Z,5.50
2022-08-04T00:25:41.426Z,5.33
2022-08-04T00:28:09.934Z,5.70
2022-08-04T00:30:37.765Z,4.97
2022-08-04T00:33:05.711Z,5.03
2022-08-04T00:35:35.619Z,4.90
2022-08-04T00:38:04.408Z,5.93
2022-08-04T00:40:44.696Z,4.77
2022-08-04T00:43:20.633Z,4.53
2022-08-04T00:46:23.722Z,5.50
2022-08-04T00:49:20.979Z,6.10
2022-08-04T00:52:32.275Z,7.53
2022-08-04T00:55:06.888Z,6.80
2022-08-04T00:57:52.201Z,6.03
2022-08-04T01:00:21.256Z,6.93
2022-08-04T01:03:03.006Z,6.27
2022-08-04T01:05:42.121Z,6.53
2022-08-04T01:08:31.114Z,5.50
2022-08-04T01:11:05.495Z,5.60
2022-08-04T01:14:00.197Z,5.03
2022-08-04T01:16:29.347Z,4.93
2022-08-04T01:19:00.550Z,5.20
2022-08-04T01:22:10.292Z,4.63
2022-08-04T01:25:11.096Z,4.90
2022-08-04T01:28:00.557Z,4.87
2022-08-04T01:30:33.370Z,4.50
2022-08-04T01:33:05.406Z,4.90
2022-08-04T01:35:48.018Z,4.83
2022-08-04T01:38:23.565Z,5.33
2022-08-04T01:40:54.491Z,4.73
2022-08-04T01:43:23.256Z,4.67
2022-08-04T01:45:58.928Z,4.90
2022-08-04T01:48:28.371Z,4.43
2022-08-04T01:50:59.885Z,4.97
2022-08-04T01:53:32.609Z,5.03
2022-08-04T01:56:02.775Z,5.80
2022-08-04T01:58:33.259Z,5.30
2022-08-04T02:01:08.513Z,6.03
2022-08-04T02:04:20.920Z,5.87
2022-08-04T02:06:33.183Z,5.30
2022-08-04T02:09:08.485Z,5.33
2022-08-04T02:11:36.267Z,5.87
2022-08-04T02:14:35.139Z,5.93
2022-08-04T02:17:06.619Z,5.33
2022-08-04T02:19:39.856Z,6.33
2022-08-04T02:22:10.326Z,6.17
2022-08-04T02:24:47.195Z,5.27
2022-08-04T02:27:15.849Z,6.03
2022-08-04T02:29:51.858Z,5.63
2022-08-04T02:32:26.505Z,5.13
2022-08-04T02:34:59.121Z,5.80
2022-08-04T02:37:27.577Z,5.83
2022-08-04T02:39:56.122Z,6.50
2022-08-04T02:42:24.458Z,6.03
2022-08-04T02:44:53.548Z,9.07
2022-08-04T02:48:23.589Z,14.23
2022-08-04T02:50:28.363Z,15.00
2022-08-04T02:52:59.352Z,13.67
2022-08-04T02:55:28.753Z,10.27
2022-08-04T02:57:59.547Z,7.23
2022-08-04T03:00:28.156Z,7.07
2022-08-04T03:03:08.908Z,6.50
2022-08-04T03:06:10.559Z,6.80
2022-08-04T03:09:30.334Z,5.00
2022-08-04T03:12:37.461Z,5.03
2022-08-04T03:15:36.732Z,6.43
2022-08-04T03:18:47.822Z,5.33
2022-08-04T03:21:49.696Z,5.00
2022-08-04T03:24:50.918Z,6.00
2022-08-04T03:27:45.992Z,5.40
2022-08-04T03:30:17.691Z,5.90
2022-08-04T03:33:16.598Z,5.67
2022-08-04T03:36:32.050Z,4.93
2022-08-04T03:39:32.783Z,5.13
2022-08-04T03:42:16.151Z,5.97
2022-08-04T03:45:23.177Z,5.13
2022-08-04T03:48:37.998Z,5.73
2022-08-04T03:51:52.902Z,5.10
2022-08-04T03:54:44.419Z,5.70
2022-08-04T03:57:40.659Z,6.10
2022-08-04T04:00:10.726Z,6.03
2022-08-04T04:03:28.560Z,5.37
2022-08-04T04:06:34.650Z,5.70
2022-08-04T04:09:20.524Z,5.07
2022-08-04T04:12:16.146Z,5.57
2022-08-04T04:14:56.080Z,4.70
2022-08-04T04:17:55.436Z,4.60
2022-08-04T04:20:55.570Z,4.47
2022-08-04T04:23:34.388Z,3.90
2022-08-04T04:26:26.953Z,3.57
2022-08-04T04:29:04.543Z,3.83
2022-08-04T04:31:47.561Z,3.93
2022-08-04T04:34:28.558Z,3.83
2022-08-04T04:37:13.411Z,4.80
2022-08-04T04:39:53.650Z,4.30
2022-08-04T04:42:39.247Z,3.63
2022-08-04T04:45:24.669Z,3.97
2022-08-04T04:48:09.407Z,4.30
2022-08-04T04:50:50.074Z,3.67
2022-08-04T04:53:25.326Z,4.20
2022-08-04T04:56:01.323Z,3.70
2022-08-04T04:58:34.604Z,3.27
2022-08-04T05:01:17.663Z,3.60
2022-08-04T05:04:00.876Z,3.50
2022-08-04T05:06:54.503Z,3.53
2022-08-04T05:09:47.673Z,3.60
2022-08-04T05:14:33.017Z,3.27
2022-08-04T05:15:36.165Z,2.70
2022-08-04T05:18:07.724Z,2.93
2022-08-04T05:20:40.274Z,3.03
2022-08-04T05:23:14.665Z,2.53
2022-08-04T05:25:58.935Z,2.50
2022-08-04T05:28:30.181Z,2.70
2022-08-04T05:31:05.178Z,2.07
2022-08-04T05:33:42.825Z,2.43
2022-08-04T05:36:32.743Z,2.67
2022-08-04T05:39:07.503Z,2.40
2022-08-04T05:41:45.778Z,2.87
2022-08-04T05:44:18.243Z,2.13
2022-08-04T05:46:54.001Z,2.53
2022-08-04T05:49:24.237Z,2.27
2022-08-04T05:51:55.853Z,2.60
2022-08-04T05:54:25.873Z,2.33
2022-08-04T05:56:56.066Z,2.73
2022-08-04T05:59:26.247Z,2.10
2022-08-04T06:01:58.984Z,2.37
2022-08-04T06:04:32.787Z,2.80
2022-08-04T06:07:00.560Z,2.50
2022-08-04T06:09:28.429Z,2.50
2022-08-04T06:12:03.238Z,2.60
2022-08-04T06:14:37.742Z,2.03
2022-08-04T06:17:18.364Z,2.00
2022-08-04T06:20:19.125Z,1.77
2022-08-04T06:22:50.472Z,1.60
2022-08-04T06:25:23.757Z,2.83
2022-08-04T06:27:52.697Z,1.90
2022-08-04T06:30:21.402Z,1.87
2022-08-04T06:33:03.350Z,2.00
2022-08-04T06:35:34.172Z,1.60
2022-08-04T06:38:04.292Z,1.90
2022-08-04T06:40:34.515Z,2.07
2022-08-04T06:43:03.863Z,2.37
2022-08-04T06:45:34.950Z,1.60
2022-08-04T06:48:04.820Z,1.60
2022-08-04T06:51:32.924Z,1.70
2022-08-04T06:53:21.888Z,1.10
2022-08-04T06:55:51.256Z,1.37
2022-08-04T06:58:22.069Z,1.17
2022-08-04T07:00:50.562Z,1.00
2022-08-04T07:03:21.684Z,1.53
2022-08-04T07:05:50.990Z,1.60
2022-08-04T07:08:19.079Z,1.20
2022-08-04T07:10:47.827Z,1.20
2022-08-04T07:13:16.813Z,1.43
2022-08-04T07:15:48.114Z,1.57
2022-08-04T07:18:16.242Z,1.67
2022-08-04T07:20:47.011Z,1.40
2022-08-04T07:23:18.914Z,1.40
2022-08-04T07:26:11.067Z,1.80
2022-08-04T07:28:41.639Z,1.47
2022-08-04T07:31:33.707Z,1.30
2022-08-04T07:34:17.178Z,1.30
2022-08-04T07:36:55.155Z,1.60
2022-08-04T07:39:28.528Z,1.20
2022-08-04T07:41:59.102Z,1.50
2022-08-04T07:44:27.848Z,1.40
2022-08-04T07:46:56.280Z,1.37
2022-08-04T07:49:56.510Z,1.07
2022-08-04T07:52:17.607Z,1.30
2022-08-04T07:54:46.133Z,1.40
2022-08-04T07:57:19.581Z,1.60
2022-08-04T08:00:02.517Z,1.17
2022-08-04T08:02:31.146Z,1.30
2022-08-04T08:04:59.052Z,1.30
2022-08-04T08:07:28.783Z,1.10
2022-08-04T08:09:57.302Z,1.47
2022-08-04T08:12:37.362Z,1.17
2022-08-04T08:15:15.906Z,1.40
2022-08-04T08:17:59.944Z,1.10
2022-08-04T08:20:31.179Z,1.00
2022-08-04T08:23:02.350Z,1.30
2022-08-04T08:25:32.304Z,1.23
2022-08-04T08:28:00.732Z,0.93
2022-08-04T08:30:32.109Z,1.13
2022-08-04T08:33:05.729Z,1.10
2022-08-04T08:35:47.414Z,1.30
2022-08-04T08:38:30.021Z,1.15
2022-08-04T08:41:05.112Z,1.00
2022-08-04T08:44:04.977Z,1.38
2022-08-04T08:46:50.085Z,1.20
2022-08-04T08:50:04.093Z,1.10
2022-08-04T08:52:55.356Z,1.10
2022-08-04T08:55:40.512Z,1.10
2022-08-04T08:58:24.447Z,1.13
2022-08-04T09:01:04.400Z,1.40
2022-08-04T09:04:02.850Z,0.93
2022-08-04T09:06:51.854Z,1.35
2022-08-04T09:09:52.668Z,1.10
2022-08-04T09:12:29.087Z,1.08
2022-08-04T09:15:05.694Z,1.02
2022-08-04T09:17:42.625Z,1.02
2022-08-04T09:20:17.678Z,0.80
2022-08-04T09:22:53.362Z,1.10
2022-08-04T09:25:25.893Z,1.10
2022-08-04T09:27:57.225Z,1.07
2022-08-04T09:30:30.352Z,0.97
2022-08-04T09:33:12.811Z,1.17
2022-08-04T09:35:53.701Z,1.20
2022-08-04T09:38:27.395Z,1.17
2022-08-04T09:41:04.631Z,1.10
2022-08-04T09:44:49.905Z,1.50
2022-08-04T09:46:54.561Z,1.30
2022-08-04T09:49:31.113Z,1.05
2022-08-04T09:52:08.862Z,1.30
2022-08-04T09:54:48.646Z,1.15
2022-08-04T09:57:31.242Z,1.07
2022-08-04T10:00:05.979Z,0.90
2022-08-04T10:02:39.157Z,1.02
2022-08-04T10:05:14.774Z,1.50
2022-08-04T10:08:17.216Z,1.30
2022-08-04T10:10:56.674Z,1.30
2022-08-04T10:13:37.876Z,1.20
2022-08-04T10:16:23.662Z,1.20
2022-08-04T10:19:08.300Z,1.33
2022-08-04T10:21:59.374Z,1.33
2022-08-04T10:24:57.107Z,1.07
2022-08-04T10:27:41.793Z,1.40
2022-08-04T10:30:19.706Z,1.03
2022-08-04T10:32:57.074Z,0.93
2022-08-04T10:35:33.995Z,1.40
2022-08-04T10:38:26.775Z,1.10
2022-08-04T10:41:07.909Z,1.00
2022-08-04T10:43:51.596Z,1.77
2022-08-04T10:46:24.534Z,1.57
2022-08-04T10:48:59.935Z,1.07
2022-08-04T10:51:58.379Z,1.30
2022-08-04T10:54:37.100Z,1.30
2022-08-04T10:57:09.814Z,1.80
2022-08-04T10:59:44.761Z,0.93
2022-08-04T11:02:35.305Z,1.30
2022-08-04T11:05:15.052Z,1.40
2022-08-04T11:07:46.431Z,1.57
2022-08-04T11:10:16.469Z,1.67
2022-08-04T11:12:46.835Z,1.40
2022-08-04T11:15:22.805Z,1.50
2022-08-04T11:17:57.921Z,1.30
2022-08-04T11:20:36.200Z,1.87
2022-08-04T11:23:08.314Z,1.33
2022-08-04T11:25:51.599Z,1.40
2022-08-04T11:28:30.394Z,1.00
2022-08-04T11:31:05.444Z,1.70
2022-08-04T11:33:45.539Z,1.30
2022-08-04T11:36:23.489Z,1.40
2022-08-04T11:38:57.923Z,1.30
2022-08-04T11:41:37.844Z,1.43
2022-08-04T11:44:12.302Z,1.30
2022-08-04T11:46:43.299Z,1.70
2022-08-04T11:49:27.973Z,1.70
2022-08-04T11:52:00.396Z,1.30
2022-08-04T11:54:28.884Z,2.00
2022-08-04T11:56:56.994Z,1.73
2022-08-04T11:59:28.354Z,1.50
2022-08-04T12:02:08.785Z,1.60
2022-08-04T12:04:48.421Z,1.40
2022-08-04T12:07:41.152Z,1.27
2022-08-04T12:10:41.826Z,1.40
2022-08-04T12:13:19.125Z,1.40
2022-08-04T12:15:57.548Z,1.80
2022-08-04T12:18:32.146Z,1.70
2022-08-04T12:21:02.787Z,1.87
2022-08-04T12:23:37.076Z,1.50
2022-08-04T12:26:08.398Z,1.90
2022-08-04T12:29:08.111Z,2.00
2022-08-04T12:31:29.529Z,1.30
2022-08-04T12:34:06.220Z,1.70
2022-08-04T12:36:41.146Z,1.20
2022-08-04T12:39:16.758Z,1.40
2022-08-04T12:41:52.028Z,1.70
2022-08-04T12:44:33.373Z,1.43
2022-08-04T12:47:26.860Z,1.80
2022-08-04T12:50:02.867Z,1.50
2022-08-04T12:55:29.080Z,1.70
2022-08-04T12:57:58.483Z,1.83
2022-08-04T13:00:32.132Z,2.20
2022-08-04T13:03:09.575Z,1.60
2022-08-04T13:05:40.362Z,1.60
2022-08-04T13:08:09.597Z,2.07
2022-08-04T13:10:42.196Z,2.07
2022-08-04T13:13:18.936Z,1.67
2022-08-04T13:15:57.989Z,1.77
2022-08-04T13:18:30.340Z,1.77
2022-08-04T13:21:20.133Z,1.60
2022-08-04T13:24:19.514Z,1.40
2022-08-04T13:26:54.706Z,1.83
2022-08-04T13:30:00.644Z,1.80
2022-08-04T13:32:18.757Z,1.60
2022-08-04T13:34:49.485Z,1.60
2022-08-04T13:37:23.462Z,1.87
2022-08-04T13:39:55.599Z,1.93
2022-08-04T13:42:28.191Z,2.23
2022-08-04T13:44:58.132Z,1.87
2022-08-04T13:47:29.717Z,1.73
2022-08-04T13:50:14.928Z,1.30
2022-08-04T13:52:43.325Z,1.70
2022-08-04T13:55:21.394Z,1.90
2022-08-04T13:57:54.604Z,1.93
2022-08-04T14:00:29.933Z,1.80
2022-08-04T14:03:23.339Z,1.40
2022-08-04T14:06:14.568Z,1.77
2022-08-04T14:08:53.603Z,1.50
2022-08-04T14:12:08.917Z,1.67
2022-08-04T14:14:22.874Z,1.70
2022-08-04T14:17:18.074Z,1.67
2022-08-04T14:20:00.415Z,1.30
2022-08-04T14:22:34.527Z,1.70
2022-08-04T14:25:06.363Z,1.30
2022-08-04T14:27:42.957Z,1.50
2022-08-04T14:30:32.743Z,1.40
2022-08-04T14:34:04.509Z,1.43
2022-08-04T14:36:15.743Z,1.70
2022-08-04T14:39:01.214Z,1.40
2022-08-04T14:41:50.398Z,1.50
2022-08-04T14:44:23.282Z,2.27
2022-08-04T14:47:05.223Z,1.50
2022-08-04T14:50:04.892Z,2.43
2022-08-04T14:52:44.134Z,1.30
2022-08-04T14:55:23.073Z,1.67
2022-08-04T14:58:36.510Z,1.67
2022-08-04T15:00:55.962Z,1.67
2022-08-04T15:03:28.027Z,1.70
2022-08-04T15:06:12.554Z,1.60
2022-08-04T15:08:46.929Z,1.43
2022-08-04T15:11:23.346Z,1.30
2022-08-04T15:13:51.937Z,1.37
2022-08-04T15:16:20.735Z,1.53
2022-08-04T15:18:51.032Z,1.67
2022-08-04T15:21:23.598Z,1.73
2022-08-04T15:23:51.617Z,1.60
2022-08-04T15:26:24.919Z,1.80
2022-08-04T15:28:57.121Z,2.37
2022-08-04T15:32:08.656Z,2.00
2022-08-04T15:34:16.195Z,1.47
2022-08-04T15:36:56.275Z,1.40
2022-08-04T15:39:39.608Z,1.40
2022-08-04T15:42:21.203Z,1.57
2022-08-04T15:45:05.513Z,1.80
2022-08-04T15:47:33.963Z,1.90
2022-08-04T15:50:09.361Z,1.80
2022-08-04T15:53:10.866Z,1.70
2022-08-04T15:55:43.182Z,1.63
2022-08-04T15:58:13.144Z,1.63
2022-08-04T16:01:16.011Z,2.40
2022-08-04T16:03:59.573Z,2.00
2022-08-04T16:06:48.439Z,2.23
2022-08-04T16:09:46.081Z,1.87
2022-08-04T16:12:54.247Z,2.00
2022-08-04T16:15:38.209Z,1.80
2022-08-04T16:18:13.771Z,1.97
2022-08-04T16:20:56.986Z,2.63
2022-08-04T16:24:00.791Z,2.03
2022-08-04T16:26:54.709Z,1.67
2022-08-04T16:29:36.459Z,1.70
2022-08-04T16:32:20.224Z,1.80
2022-08-04T16:34:55.085Z,2.10
2022-08-04T16:37:26.380Z,2.33
2022-08-04T16:40:35.367Z,1.40
2022-08-04T16:43:07.306Z,1.73
2022-08-04T16:45:46.826Z,2.63
2022-08-04T16:48:16.332Z,1.67
2022-08-04T16:50:53.346Z,1.77
2022-08-04T16:53:52.576Z,1.57
2022-08-04T16:56:15.036Z,1.77
2022-08-04T16:58:53.817Z,1.40
2022-08-04T17:01:33.631Z,1.80
2022-08-04T17:04:06.274Z,2.20
2022-08-04T17:06:36.266Z,2.17
2022-08-04T17:09:07.174Z,2.00
2022-08-04T17:11:36.502Z,2.13
2022-08-04T17:14:06.637Z,2.17
2022-08-04T17:16:36.994Z,1.53
2022-08-04T17:19:06.288Z,1.80
2022-08-04T17:21:36.200Z,2.43
2022-08-04T17:24:14.326Z,2.30
2022-08-04T17:26:51.901Z,2.10
2022-08-04T17:29:43.451Z,1.80
2022-08-04T17:32:17.214Z,2.00
2022-08-04T17:34:49.204Z,2.00
2022-08-04T17:37:38.236Z,1.87
2022-08-04T17:40:11.107Z,2.10
2022-08-04T17:42:42.029Z,2.00
2022-08-04T17:48:00.592Z,2.60
2022-08-04T17:50:35.958Z,2.17
2022-08-04T17:53:11.152Z,1.90
2022-08-04T17:55:42.889Z,2.53
2022-08-04T17:58:21.295Z,2.63
2022-08-04T18:00:51.160Z,2.43
2022-08-04T18:03:25.546Z,3.20
2022-08-04T18:06:03.187Z,2.80
2022-08-04T18:08:35.453Z,2.10
2022-08-04T18:11:21.986Z,2.57
2022-08-04T18:13:57.035Z,1.77
2022-08-04T18:16:25.355Z,2.10
2022-08-04T18:19:11.450Z,2.53
2022-08-04T18:21:46.868Z,2.50
2022-08-04T18:24:34.714Z,2.63
2022-08-04T18:27:06.512Z,2.37
2022-08-04T18:29:39.233Z,2.20
2022-08-04T18:32:09.159Z,2.50
2022-08-04T18:34:40.869Z,2.80
2022-08-04T18:38:05.718Z,3.00
2022-08-04T18:40:26.592Z,2.40
2022-08-04T18:42:59.992Z,3.80
2022-08-04T18:45:33.771Z,3.17
2022-08-04T18:48:14.044Z,3.43
2022-08-04T18:51:10.538Z,3.07
2022-08-04T18:53:35.668Z,3.80
2022-08-04T18:56:06.256Z,3.67
2022-08-04T18:58:52.615Z,4.50
2022-08-04T19:01:22.220Z,3.20
2022-08-04T19:03:58.301Z,2.67
2022-08-04T19:06:27.499Z,3.30
2022-08-04T19:08:55.841Z,3.30
2022-08-04T19:17:00.678Z,3.63
2022-08-04T19:22:35.895Z,3.33
2022-08-04T19:25:04.157Z,4.70
2022-08-04T19:27:38.579Z,4.30
2022-08-04T19:30:09.427Z,3.70
2022-08-04T19:32:40.759Z,4.60
2022-08-04T19:35:14.179Z,4.70
2022-08-04T19:37:58.478Z,3.30
2022-08-04T19:40:33.645Z,3.60
2022-08-04T19:43:14.232Z,4.10
2022-08-04T19:45:44.994Z,3.97
2022-08-04T19:48:22.123Z,3.73
2022-08-04T19:50:51.437Z,3.37
2022-08-04T19:53:26.710Z,3.53
2022-08-04T19:56:06.624Z,4.10
2022-08-04T19:58:34.371Z,4.00
2022-08-04T20:01:02.780Z,4.00
2022-08-04T20:04:08.479Z,4.27
2022-08-04T20:06:19.982Z,5.13
2022-08-04T20:08:48.258Z,5.07
2022-08-04T20:11:17.414Z,4.13
2022-08-04T20:13:54.160Z,5.27
2022-08-04T20:16:30.433Z,4.20
2022-08-04T20:19:03.846Z,4.70
2022-08-04T20:21:36.487Z,4.83
2022-08-04T20:24:36.584Z,4.97
2022-08-04T20:27:15.045Z,4.90
2022-08-04T20:29:48.570Z,4.67
2022-08-04T20:32:19.672Z,4.13
2022-08-04T20:34:49.637Z,5.47
2022-08-04T20:37:19.309Z,5.03
2022-08-04T20:39:54.863Z,5.30
2022-08-04T20:42:26.918Z,4.87
2022-08-04T20:44:56.296Z,4.80
2022-08-04T20:47:26.734Z,5.00
2022-08-04T20:50:00.779Z,5.50
2022-08-04T20:52:30.570Z,5.07
2022-08-04T20:54:58.624Z,5.00
2022-08-04T20:57:48.899Z,4.77
2022-08-04T21:00:15.413Z,4.77
2022-08-04T21:02:44.392Z,4.47
2022-08-04T21:05:13.745Z,4.37
2022-08-04T21:07:48.658Z,4.87
2022-08-04T21:10:16.977Z,4.93
2022-08-04T21:12:49.736Z,5.37
2022-08-04T21:15:25.125Z,5.47
2022-08-04T21:17:58.589Z,5.53
2022-08-04T21:20:36.115Z,4.53
2022-08-04T21:23:07.702Z,4.97
2022-08-04T21:25:42.464Z,4.73
2022-08-04T21:28:11.903Z,4.43
2022-08-04T21:30:52.473Z,4.77
2022-08-04T21:33:22.165Z,5.10
2022-08-04T21:35:53.980Z,5.07
2022-08-04T21:38:25.329Z,5.70
2022-08-04T21:41:01.790Z,5.00
2022-08-04T21:43:42.390Z,5.10
2022-08-04T21:46:11.807Z,5.10
2022-08-04T21:48:42.349Z,4.97
2022-08-04T21:51:57.433Z,4.57
2022-08-04T21:54:09.739Z,4.20
2022-08-04T21:56:42.750Z,5.20
2022-08-04T21:59:23.798Z,5.03
2022-08-04T22:01:58.363Z,4.80
2022-08-04T22:04:28.429Z,5.57
2022-08-04T22:06:57.881Z,5.57
2022-08-04T22:09:30.629Z,4.20
2022-08-04T22:12:07.440Z,5.20
2022-08-04T22:14:40.042Z,4.83
2022-08-04T22:17:13.629Z,4.80
2022-08-04T22:19:55.595Z,5.20
2022-08-04T22:22:27.219Z,4.47
2022-08-04T22:25:01.218Z,4.30
2022-08-04T22:27:47.819Z,5.60
2022-08-04T22:30:23.220Z,5.30
2022-08-04T22:32:51.333Z,5.30
2022-08-04T22:35:35.667Z,4.30
2022-08-04T22:38:21.885Z,5.07
2022-08-04T22:40:58.539Z,5.10
2022-08-04T22:43:32.311Z,5.17
2022-08-04T22:46:03.649Z,4.57
2022-08-04T22:48:32.842Z,4.83
2022-08-04T22:51:00.921Z,5.73
2022-08-04T22:53:32.760Z,4.80
2022-08-04T22:56:09.241Z,4.67
2022-08-04T22:58:40.077Z,5.77
2022-08-04T23:01:08.642Z,5.17
2022-08-04T23:03:38.389Z,5.70
2022-08-04T23:06:10.510Z,5.93
2022-08-04T23:08:43.080Z,5.30
2022-08-04T23:11:15.022Z,4.70
2022-08-04T23:13:43.006Z,4.80
2022-08-04T23:16:11.660Z,5.63
2022-08-04T23:18:42.027Z,4.93
2022-08-04T23:21:11.610Z,4.97
2022-08-04T23:23:45.575Z,4.43
2022-08-04T23:26:27.620Z,4.40
2022-08-04T23:28:56.416Z,4.60
2022-08-04T23:31:25.196Z,4.40
2022-08-04T23:34:08.625Z,4.87
2022-08-04T23:36:36.898Z,4.40
2022-08-04T23:39:06.606Z,4.27
2022-08-04T23:41:53.431Z,3.87
2022-08-04T23:44:24.900Z,4.30
2022-08-04T23:46:59.186Z,4.40
2022-08-04T23:49:44.395Z,4.50
2022-08-04T23:52:23.372Z,4.40
2022-08-04T23:54:59.236Z,4.40
2022-08-04T23:58:02.384Z,4.10
